Data for 08/16/2010

Time Sea-Level Adjusted Pressure Absolute Pressure Temperature Relative Humidity Dew Point   
(mb) (inHg) (mb) (inHg) (C) (F) (%) (C) (F)
00:05 1024 30.24 854 25.22 16 60.7 53 6.5 43.8
00:10 1024 30.24 854 25.22 15.9 60.5 53 6.4 43.6
00:15 1024 30.24 854 25.22 15.9 60.5 53 6.3 43.4
00:20 1024 30.24 854 25.22 15.8 60.5 53 6.3 43.3
00:25 1024 30.24 854 25.22 15.8 60.4 53 6.3 43.4
00:30 1024 30.24 854 25.22 15.7 60.3 53 6.4 43.5
00:35 1024 30.24 854 25.22 15.7 60.2 53 6.3 43.4
00:40 1024 30.24 854 25.22 15.5 60 54 6.4 43.5
00:45 1024 30.24 854 25.22 15.5 59.9 54 6.4 43.5
00:50 1024 30.24 854 25.22 15.4 59.7 55 6.4 43.5
00:55 1024 30.24 854 25.22 15.3 59.5 55 6.4 43.5
01:00 1024 30.24 854 25.22 15.2 59.4 55 6.3 43.3
01:05 1024 30.24 854 25.22 15.1 59.3 56 6.4 43.5
01:10 1024 30.24 854 25.22 15 59.1 55 6.2 43.2
01:15 1024 30.24 854 25.22 15.1 59.1 55 6.3 43.3
01:20 1024 30.24 854 25.22 15 59 55 6.1 43
01:25 1024 30.24 854 25.22 15.1 59.2 55 6.2 43.2
01:30 1024 30.24 854 25.22 14.9 58.8 56 6.3 43.3
01:35 1024 30.24 853 25.19 14.8 58.7 56 6.1 43
01:40 1024 30.24 853 25.19 14.8 58.7 55 6 42.7
01:45 1024 30.24 853 25.19 15 58.9 54 6 42.7
01:50 1024 30.24 853 25.19 15 58.9 55 6.1 42.9
01:55 1024 30.24 853 25.19 14.9 58.8 55 6 42.8
02:00 1024 30.24 853 25.19 14.8 58.7 55 5.9 42.7
02:05 1024 30.24 853 25.19 14.8 58.7 55 5.9 42.7
02:10 1024 30.24 853 25.19 14.8 58.6 55 5.9 42.6
02:15 1024 30.24 853 25.19 14.7 58.5 56 6 42.8
02:20 1024 30.24 853 25.19 14.6 58.2 56 6 42.8
02:25 1024 30.24 853 25.19 14.4 57.9 57 6 42.8
02:30 1024 30.24 853 25.19 14.3 57.7 57 6 42.7
02:35 1024 30.24 853 25.19 14.3 57.7 57 6 42.8
02:40 1024 30.24 853 25.19 14.1 57.4 58 6.1 42.9
02:45 1024 30.24 853 25.19 14 57.1 59 6 42.9
02:50 1024 30.24 853 25.19 13.8 56.9 59 6.1 42.9
02:55 1024 30.24 853 25.19 13.7 56.7 59 6 42.8
03:00 1024 30.24 854 25.22 13.7 56.6 59 6 42.7
03:05 1024 30.24 854 25.22 13.7 56.6 60 6 42.8
03:10 1024 30.24 854 25.22 13.6 56.4 60 6 42.9
03:15 1024 30.24 854 25.22 13.5 56.2 60 6 42.7
03:20 1024 30.24 854 25.22 13.4 56.1 60 5.9 42.6
03:25 1024 30.24 854 25.22 13.5 56.3 60 6 42.9
03:30 1024 30.24 854 25.22 13.4 56.1 60 5.8 42.5
03:35 1024 30.24 854 25.22 13.5 56.2 60 5.8 42.5
03:40 1024 30.24 854 25.22 13.6 56.5 59 5.9 42.6
03:45 1024 30.24 854 25.22 13.6 56.5 60 6 42.9
03:50 1024 30.24 854 25.22 13.4 56.2 61 6.1 42.9
03:55 1024 30.24 854 25.22 13.1 55.6 62 6 42.8
04:00 1024 30.24 854 25.22 13 55.4 62 6 42.8
04:05 1024 30.24 854 25.22 13 55.4 62 5.9 42.7
04:10 1024 30.24 854 25.22 13 55.4 62 6 42.9
04:15 1024 30.24 853 25.19 12.9 55.3 63 6 42.8
04:20 1024 30.24 853 25.19 12.8 55.1 63 6.1 42.9
04:25 1024 30.24 853 25.19 12.6 54.7 64 6.1 42.9
04:30 1024 30.24 853 25.19 12.5 54.4 65 6.2 43.1
04:35 1024 30.24 853 25.19 12.3 54.1 65 6 42.9
04:40 1024 30.24 854 25.22 12.2 54 65 6 42.8
04:45 1024 30.24 854 25.22 12.3 54.1 65 6 42.7
04:50 1024 30.24 854 25.22 12.3 54.1 65 6 42.7
04:55 1024 30.24 854 25.22 12.3 54.2 65 6 42.8
05:00 1024 30.24 854 25.22 12.3 54.1 65 6 42.9
05:05 1024 30.24 853 25.19 12.2 54 65 6 42.8
05:10 1024 30.24 853 25.19 12.2 54 65 6 42.8
05:15 1024 30.24 853 25.19 12.2 54 65 5.9 42.6
05:20 1024 30.24 853 25.19 12.3 54.2 65 6 42.8
05:25 1024 30.24 854 25.22 12.3 54.1 65 6 42.8
05:30 1024 30.24 854 25.22 12.2 53.9 66 6.1 43
05:35 1024 30.24 854 25.22 12 53.5 68 6.2 43.2
05:40 1024 30.24 854 25.22 11.5 52.6 69 6.1 42.9
05:45 1024 30.24 854 25.22 11.5 52.8 68 5.9 42.6
05:50 1024 30.24 854 25.22 11.7 53 68 6 42.9
05:55 1024 30.24 854 25.22 11.7 53 67 5.9 42.6
06:00 1024 30.24 853 25.19 11.8 53.2 67 6 42.7
06:05 1024 30.24 854 25.22 11.7 53.1 68 6 42.8
06:10 1024 30.24 854 25.22 11.7 53.1 68 6 42.8
06:15 1024 30.24 854 25.22 11.5 52.7 68 5.9 42.7
06:20 1024 30.24 853 25.19 11.3 52.3 70 6.1 42.9
06:25 1024 30.24 854 25.22 10.9 51.6 72 6 42.8
06:30 1024 30.24 854 25.22 10.7 51.2 72 5.9 42.6
06:35 1024 30.24 853 25.19 10.6 51.1 72 5.8 42.5
06:40 1024 30.24 853 25.19 10.6 51 73 5.9 42.5
06:45 1024 30.24 853 25.19 10.5 50.9 72 5.8 42.4
06:50 1024 30.24 853 25.19 10.6 51 72 5.8 42.4
06:55 1024 30.24 853 25.19 10.8 51.5 71 5.8 42.5
07:00 1024 30.24 853 25.19 11.1 51.9 70 5.8 42.5
07:05 1024 30.24 853 25.19 11.2 52.2 69 5.8 42.5
07:10 1024 30.24 853 25.19 11.4 52.5 69 5.9 42.6
07:15 1024 30.24 853 25.19 11.5 52.7 69 6 42.8
07:20 1024 30.24 853 25.19 11.5 52.7 69 6 42.9
07:25 1024 30.24 853 25.19 11.7 53.1 68 6.1 43
07:30 1024 30.24 853 25.19 12 53.5 67 6.1 42.9
07:35 1024 30.24 853 25.19 12.2 53.9 66 6.1 42.9
07:40 1024 30.24 853 25.19 12.4 54.4 66 6.2 43.2
07:45 1024 30.24 853 25.19 12.7 54.8 64 6.2 43.2
07:50 1024 30.24 853 25.19 13 55.3 64 6.3 43.3
07:55 1024 30.24 853 25.19 13.3 55.9 62 6.3 43.3
08:00 1024 30.24 853 25.19 13.7 56.6 61 6.4 43.5
08:05 1024 30.24 853 25.19 14.1 57.3 58 6.1 43
08:10 1024 30.24 853 25.19 14.3 57.8 58 6.2 43.1
08:15 1024 30.24 853 25.19 14.6 58.2 57 6.3 43.3
08:20 1024 30.24 853 25.19 14.8 58.7 56 6.1 43.1
08:25 1024 30.24 853 25.19 14.9 58.7 57 6.4 43.5
08:30 1024 30.24 853 25.19 15.1 59.2 55 6.2 43.2
08:35 1024 30.24 853 25.19 15.5 59.9 54 6.4 43.6
08:40 1024 30.24 853 25.19 15.8 60.4 54 6.5 43.7
08:45 1024 30.24 853 25.19 15.8 60.5 54 6.5 43.7
08:50 1024 30.24 853 25.19 16.2 61.1 53 6.7 44.1
08:55 1024 30.24 853 25.19 16.4 61.5 52 6.7 44
09:00 1024 30.24 853 25.19 16.3 61.4 52 6.6 43.8
09:05 1024 30.24 853 25.19 16.6 61.8 50 6.4 43.4
09:10 1024 30.24 853 25.19 16.8 62.2 51 6.7 44.1
09:15 1024 30.24 853 25.19 16.9 62.3 50 6.5 43.6
09:20 1024 30.24 853 25.19 17.3 63.2 49 6.6 43.9
09:25 1024 30.24 853 25.19 17.2 62.9 50 6.8 44.3
09:30 1024 30.24 853 25.19 17.2 63 51 7 44.7
09:35 1024 30.24 853 25.19 17.4 63.2 51 7.3 45.2
09:40 1024 30.24 853 25.19 17 62.6 52 7.1 44.8
09:45 1024 30.24 853 25.19 16.8 62.2 52 6.9 44.4
09:50 1023 30.21 853 25.19 17 62.6 51 7 44.7
09:55 1023 30.21 853 25.19 17.4 63.3 52 7.5 45.5
10:00 1023 30.21 853 25.19 17.7 63.8 50 7.4 45.3
10:05 1023 30.21 852 25.16 17.5 63.5 51 7.3 45.1
10:10 1023 30.21 852 25.16 18.1 64.5 48 6.9 44.5
10:15 1023 30.21 852 25.16 18 64.4 49 7.3 45.1
10:20 1023 30.21 852 25.16 18.5 65.3 49 7.7 45.8
10:25 1023 30.21 852 25.16 18.2 64.7 49 7.5 45.5
10:30 1023 30.21 852 25.16 18.4 65 46 6.7 44.1
10:35 1023 30.21 852 25.16 18.5 65.3 48 7.4 45.4
10:40 1023 30.21 852 25.16 18.9 65.9 47 7.6 45.6
10:45 1023 30.21 852 25.16 19.2 66.5 45 7.3 45.1
10:50 1023 30.21 852 25.16 19.7 67.4 45 7.6 45.6
10:55 1023 30.21 852 25.16 20.2 68.4 43 7.4 45.3
11:00 1023 30.21 852 25.16 19.6 67.3 46 7.9 46.3
11:05 1023 30.21 852 25.16 20.1 68.3 42 7.1 44.9
11:10 1023 30.21 852 25.16 19.7 67.5 45 7.6 45.7
11:15 1023 30.21 852 25.16 19.5 67.1 44 6.9 44.5
11:20 1023 30.21 852 25.16 19.1 66.4 46 7.4 45.3
11:25 1023 30.21 852 25.16 19.7 67.4 45 7.5 45.6
11:30 1023 30.21 852 25.16 20.4 68.8 42 7.2 44.9
11:35 1023 30.21 852 25.16 20.3 68.5 43 7.4 45.3
11:40 1023 30.21 852 25.16 21.1 70 40 7.1 44.8
11:45 1023 30.21 852 25.16 21.3 70.3 42 8.1 46.6
11:50 1023 30.21 852 25.16 20.5 68.8 41 6.9 44.4
11:55 1023 30.21 852 25.16 20.2 68.4 43 7.3 45.2
12:00 1023 30.21 852 25.16 20.6 69 42 7.5 45.5
12:05 1022 30.18 852 25.16 21.5 70.7 39 7.2 45
12:10 1022 30.18 852 25.16 22.3 72.1 37 7 44.5
12:15 1022 30.18 852 25.16 22.6 72.7 38 7.9 46.2
12:20 1022 30.18 852 25.16 22 71.6 39 7.5 45.6
12:25 1022 30.18 851 25.13 21.6 70.9 40 7.6 45.7
12:30 1022 30.18 851 25.13 22.2 71.9 39 7.8 46.1
12:35 1022 30.18 851 25.13 22 71.6 36 6.4 43.5
12:40 1022 30.18 851 25.13 22.9 73.1 36 7.3 45.1
12:45 1022 30.18 851 25.13 23.6 74.5 33 6.7 44.1
12:50 1022 30.18 851 25.13 23.4 74.1 34 7 44.5
12:55 1022 30.18 851 25.13 22.9 73.2 37 7.4 45.4
13:00 1022 30.18 851 25.13 22.9 73.1 35 7 44.6
13:05 1022 30.18 851 25.13 22.8 73 35 6.9 44.4
13:10 1022 30.18 851 25.13 22.3 72.2 37 7.2 45
13:15 1022 30.18 851 25.13 22.7 72.9 35 6.8 44.3
13:20 1022 30.18 851 25.13 24.1 75.4 32 6.5 43.7
13:25 1022 30.18 851 25.13 24.6 76.2 31 6.5 43.6
13:30 1022 30.18 851 25.13 24.5 76.2 30 6.2 43.1
13:35 1022 30.18 851 25.13 23.8 74.8 32 6.3 43.3
13:40 1022 30.18 851 25.13 24.6 76.2 31 6.4 43.6
13:45 1022 30.18 851 25.13 25 77 31 7 44.6
13:50 1022 30.18 851 25.13 25.4 77.7 29 6.3 43.3
13:55 1021 30.15 851 25.13 24.9 76.9 31 6.8 44.3
14:00 1021 30.15 851 25.13 25.4 77.8 29 6.5 43.7
14:05 1021 30.15 851 25.13 26.2 79.1 28 6.2 43.2
14:10 1021 30.15 851 25.13 26 78.7 29 6.9 44.4
14:15 1021 30.15 851 25.13 25.1 77.1 29 6.2 43.2
14:20 1021 30.15 851 25.13 24.7 76.4 29 5.9 42.6
14:25 1021 30.15 851 25.13 25.5 78 29 6.6 43.9
14:30 1021 30.15 850 25.1 26.1 78.9 26 5.2 41.4
14:35 1021 30.15 850 25.1 26.5 79.6 27 6.1 43
14:40 1021 30.15 850 25.1 26.7 80.1 27 6.4 43.6
14:45 1021 30.15 850 25.1 26.4 79.6 28 6.6 43.9
14:50 1021 30.15 850 25.1 25.6 78 28 5.9 42.7
14:55 1021 30.15 850 25.1 25.9 78.5 27 5.5 42
15:00 1021 30.15 850 25.1 26.6 79.9 26 5.9 42.6
15:05 1021 30.15 850 25.1 26.3 79.3 27 6 42.9
15:10 1021 30.15 850 25.1 26.6 79.8 25 5.1 41.2
15:15 1021 30.15 850 25.1 26.6 79.8 24 4.5 40.1
15:20 1021 30.15 850 25.1 26.1 79 23 3.8 38.8
15:25 1021 30.15 850 25.1 25.7 78.2 21 2.1 35.8
15:30 1021 30.15 850 25.1 25.9 78.6 25 4.6 40.2
15:35 1021 30.15 850 25.1 26 78.8 24 4.1 39.4
15:40 1021 30.15 850 25.1 27 80.6 22 3.9 39.1
15:45 1021 30.15 850 25.1 27.1 80.8 21 3.2 37.8
15:50 1021 30.15 850 25.1 25.9 78.7 22 2.8 37.1
15:55 1021 30.15 850 25.1 25.3 77.6 21 1.9 35.5
16:00 1021 30.15 850 25.1 25.6 78 21 2.1 35.7
16:05 1021 30.15 850 25.1 25.9 78.7 19 0.5 32.9
16:10 1020 30.12 850 25.1 27.1 80.8 18 1 33.9
16:15 1020 30.12 850 25.1 26.4 79.5 20 1.8 35.2
16:20 1020 30.12 850 25.1 26.7 80 17 -0.5 31.2
16:25 1020 30.12 849 25.07 27.3 81.1 15 -0.9 30.4
16:30 1020 30.12 849 25.07 27.2 81 16 -0.5 31.1
16:35 1020 30.12 849 25.07 27.4 81.2 16 -0.3 31.5
16:40 1020 30.12 849 25.07 27.1 80.8 17 0.5 32.9
16:45 1020 30.12 849 25.07 27.5 81.4 18 1 33.8
16:50 1020 30.12 849 25.07 27.4 81.4 17 0.3 32.5
16:55 1020 30.12 849 25.07 27.4 81.3 17 0.2 32.4
17:00 1020 30.12 849 25.07 27.1 80.8 17 0 32.1
17:05 1020 30.12 849 25.07 26.2 79.1 17 -0.2 31.7
17:10 1020 30.12 849 25.07 27.1 80.7 15 -1.3 29.7
17:15 1020 30.12 849 25.07 27.5 81.5 16 -0.4 31.2
17:20 1020 30.12 849 25.07 27.7 81.8 17 0.6 33
17:25 1020 30.12 849 25.07 27.6 81.7 15 -0.8 30.6
17:30 1020 30.12 849 25.07 27.6 81.8 14 -2.1 28.3
17:35 1020 30.12 849 25.07 27.7 81.8 15 -0.8 30.5
17:40 1020 30.12 849 25.07 27.8 82 14 -2.1 28.1
17:45 1020 30.12 849 25.07 27.5 81.5 14 -2.3 27.8
17:50 1020 30.12 849 25.07 26.9 80.3 15 -1.9 28.6
17:55 1020 30.12 849 25.07 26.9 80.4 14 -2.2 28.1
18:00 1020 30.12 849 25.07 27.2 80.9 15 -1.8 28.8
18:05 1020 30.12 849 25.07 27.3 81.1 14 -1.9 28.6
18:10 1020 30.12 849 25.07 27.3 81.2 15 -1.6 29
18:15 1019 30.09 849 25.07 27.1 80.8 15 -1.6 29.1
18:20 1019 30.09 849 25.07 27.4 81.4 15 -1.5 29.4
18:25 1019 30.09 849 25.07 27.7 81.8 15 -1.2 29.8
18:30 1019 30.09 849 25.07 27.7 81.8 15 -0.6 30.9
18:35 1019 30.09 849 25.07 26.5 79.6 18 0.3 32.6
18:40 1019 30.09 849 25.07 26.1 78.9 18 0.4 32.8
18:45 1019 30.09 849 25.07 25.7 78.3 19 0.7 33.3
18:50 1019 30.09 849 25.07 25.3 77.5 20 0.9 33.6
18:55 1019 30.09 849 25.07 25.2 77.4 20 0.8 33.4
19:00 1019 30.09 849 25.07 25.3 77.6 21 1.5 34.7
19:05 1019 30.09 849 25.07 25.5 77.9 21 1.7 35.1
19:10 1019 30.09 849 25.07 25.5 77.9 21 1.9 35.3
19:15 1019 30.09 849 25.07 25.3 77.5 22 2.2 35.9
19:20 1019 30.09 849 25.07 24.7 76.5 25 3.4 38.1
19:25 1019 30.09 849 25.07 24.5 76 25 3.3 37.9
19:30 1019 30.09 849 25.07 24.3 75.7 26 3.6 38.6
19:35 1019 30.09 849 25.07 24.2 75.6 25 3.1 37.6
19:40 1019 30.09 849 25.07 24.2 75.5 24 2.3 36.1
19:45 1019 30.09 849 25.07 24.3 75.7 25 3.2 37.7
19:50 1020 30.12 849 25.07 24.3 75.8 25 3.4 38.1
19:55 1020 30.12 849 25.07 24.2 75.5 26 3.7 38.7
20:00 1020 30.12 849 25.07 24 75.2 27 4.2 39.5
20:05 1020 30.12 849 25.07 23.7 74.7 27 3.9 39
20:10 1020 30.12 849 25.07 23.2 73.8 31 5.3 41.5
20:15 1020 30.12 849 25.07 22.9 73.2 31 5.2 41.4
20:20 1020 30.12 849 25.07 22.7 72.8 29 4 39.3
20:25 1020 30.12 849 25.07 22.6 72.6 26 2.2 36
20:30 1020 30.12 849 25.07 22.8 73.1 28 3.6 38.5
20:35 1020 30.12 849 25.07 22.5 72.5 31 4.6 40.3
20:40 1020 30.12 849 25.07 22.1 71.8 32 4.9 40.8
20:45 1020 30.12 849 25.07 21.6 70.9 35 5.8 42.5
20:50 1020 30.12 849 25.07 21 69.8 43 8.1 46.7
20:55 1020 30.12 849 25.07 20.5 68.9 44 7.8 46.1
21:00 1020 30.12 849 25.07 19.9 67.8 44 7.4 45.3
21:05 1020 30.12 849 25.07 19.5 67.1 43 6.8 44.2
21:10 1020 30.12 849 25.07 19.4 66.8 46 7.4 45.4
21:15 1020 30.12 849 25.07 19 66.2 46 7.3 45.1
21:20 1020 30.12 849 25.07 18.7 65.6 44 6.2 43.2
21:25 1020 30.12 849 25.07 18.4 65 44 5.9 42.6
21:30 1020 30.12 849 25.07 18.1 64.5 47 6.7 44
21:35 1020 30.12 849 25.07 17.9 64.2 46 6.2 43.1
21:40 1020 30.12 849 25.07 17.4 63.4 47 6.2 43.2
21:45 1020 30.12 849 25.07 17.3 63.2 45 5.4 41.8
21:50 1020 30.12 849 25.07 17.4 63.3 44 5.3 41.5
21:55 1020 30.12 850 25.1 17.4 63.3 45 5.3 41.5
22:00 1020 30.12 850 25.1 17.1 62.7 47 5.8 42.4
22:05 1020 30.12 850 25.1 16.7 62 49 5.9 42.6
22:10 1020 30.12 850 25.1 16.3 61.3 48 5.4 41.8
22:15 1020 30.12 850 25.1 16.7 62.1 45 5 40.9
22:20 1020 30.12 850 25.1 17.2 63 46 5.5 42
22:25 1020 30.12 850 25.1 16.9 62.5 46 5.3 41.5
22:30 1020 30.12 850 25.1 17.1 62.9 42 4.1 39.4
22:35 1020 30.12 849 25.07 17.6 63.7 43 5 41
22:40 1020 30.12 849 25.07 17.3 63.2 43 4.6 40.3
22:45 1020 30.12 849 25.07 17.3 63.1 44 5.1 41.2
22:50 1020 30.12 849 25.07 16.7 62.1 47 5.4 41.6
22:55 1020 30.12 850 25.1 16.5 61.6 47 5.3 41.6
23:00 1020 30.12 850 25.1 16.4 61.5 52 6.5 43.7
23:05 1021 30.15 850 25.1 16 60.9 49 5.5 41.9
23:10 1021 30.15 850 25.1 16 60.8 48 5.1 41.2
23:15 1021 30.15 850 25.1 16.5 61.6 44 4.4 40
23:20 1021 30.15 850 25.1 16.9 62.4 43 4.2 39.6
23:25 1021 30.15 850 25.1 17.2 63 42 4.4 39.8
23:30 1021 30.15 850 25.1 17.5 63.5 43 4.8 40.6
23:35 1021 30.15 850 25.1 17 62.6 44 4.8 40.6
23:40 1020 30.12 850 25.1 16.7 62 45 4.8 40.6
23:45 1020 30.12 850 25.1 16.5 61.7 47 5.1 41.2
23:50 1020 30.12 850 25.1 16.3 61.4 46 4.8 40.6
23:55 1020 30.12 850 25.1 16.2 61.1 48 5.4 41.7
24:00 1020 30.12 849 25.07 15.8 60.5 48 5 40.9